Map

Track Data

SID SEASON NUMBER BASIN SUBBASIN NAME ISO_TIME NATURE LAT LON WMO_WIND WMO_PRES WMO_AGENCY TRACK_TYPE DIST2LAND LANDFALL IFLAG USA_AGENCY USA_ATCF_ID USA_LAT USA_LON USA_RECORD USA_STATUS USA_WIND USA_PRES USA_SSHS USA_R34_NE USA_R34_SE USA_R34_SW USA_R34_NW USA_R50_NE USA_R50_SE USA_R50_SW USA_R50_NW USA_R64_NE USA_R64_SE USA_R64_SW USA_R64_NW USA_POCI USA_ROCI USA_RMW USA_EYE TOKYO_LAT TOKYO_LON TOKYO_GRADE TOKYO_WIND TOKYO_PRES TOKYO_R50_DIR TOKYO_R50_LONG TOKYO_R50_SHORT TOKYO_R30_DIR TOKYO_R30_LONG TOKYO_R30_SHORT TOKYO_LAND CMA_LAT CMA_LON CMA_CAT CMA_WIND CMA_PRES HKO_LAT HKO_LON HKO_CAT HKO_WIND HKO_PRES NEWDELHI_LAT NEWDELHI_LON NEWDELHI_GRADE NEWDELHI_WIND NEWDELHI_PRES NEWDELHI_CI NEWDELHI_DP NEWDELHI_POCI REUNION_LAT REUNION_LON REUNION_TYPE REUNION_WIND REUNION_PRES REUNION_TNUM REUNION_CI REUNION_RMW REUNION_R34_NE REUNION_R34_SE REUNION_R34_SW REUNION_R34_NW REUNION_R50_NE REUNION_R50_SE REUNION_R50_SW REUNION_R50_NW REUNION_R64_NE REUNION_R64_SE REUNION_R64_SW REUNION_R64_NW BOM_LAT BOM_LON BOM_TYPE BOM_WIND BOM_PRES BOM_TNUM BOM_CI BOM_RMW BOM_R34_NE BOM_R34_SE BOM_R34_SW BOM_R34_NW BOM_R50_NE BOM_R50_SE BOM_R50_SW BOM_R50_NW BOM_R64_NE BOM_R64_SE BOM_R64_SW BOM_R64_NW BOM_ROCI BOM_POCI BOM_EYE BOM_POS_METHOD BOM_PRES_METHOD NADI_LAT NADI_LON NADI_CAT NADI_WIND NADI_PRES WELLINGTON_LAT WELLINGTON_LON WELLINGTON_WIND WELLINGTON_PRES DS824_LAT DS824_LON DS824_STAGE DS824_WIND DS824_PRES TD9636_LAT TD9636_LON TD9636_STAGE TD9636_WIND TD9636_PRES TD9635_LAT TD9635_LON TD9635_WIND TD9635_PRES TD9635_ROCI NEUMANN_LAT NEUMANN_LON NEUMANN_CLASS NEUMANN_WIND NEUMANN_PRES MLC_LAT MLC_LON MLC_CLASS MLC_WIND MLC_PRES USA_GUST BOM_GUST BOM_GUST_PER REUNION_GUST REUNION_GUST_PER USA_SEAHGT USA_SEARAD_NE USA_SEARAD_SE USA_SEARAD_SW USA_SEARAD_NW STORM_SPEED STORM_DIR
1958351S19041 1959 115 SI MM NOT_NAMED 1958-12-17 06:00:00 NR -18.8000 40.6000 reunion main 256 241 _____O________ -1 -18.8000 40.6000 99 9.90000 3 320
1958351S19041 1959 115 SI MM NOT_NAMED 1958-12-17 09:00:00 NR -18.6947 40.5111 main 241 225 _____P________ -1 -18.6947 40.5111 99 3 322
1958351S19041 1959 115 SI MM NOT_NAMED 1958-12-17 12:00:00 NR -18.6018 40.4391 main 225 217 _____P________ -1 -18.6018 40.4391 99 2 326
1958351S19041 1959 115 SI MM NOT_NAMED 1958-12-17 15:00:00 NR -18.5338 40.4007 main 217 217 _____P________ -1 -18.5338 40.4007 99 1 0
1958351S19041 1959 115 SI MM NOT_NAMED 1958-12-17 18:00:00 NR -18.5031 40.4125 main 217 217 _____P________ -1 -18.5031 40.4125 99 1 82
1958351S19041 1959 115 SI MM NOT_NAMED 1958-12-17 21:00:00 NR -18.5221 40.4913 main 223 223 _____P________ -1 -18.5221 40.4913 99 3 114
1958351S19041 1959 115 SI MM NOT_NAMED 1958-12-18 00:00:00 NR -18.6031 40.6539 main 246 246 _____P________ -1 -18.6031 40.6539 99 5 120
1958351S19041 1959 115 SI MM NOT_NAMED 1958-12-18 03:00:00 NR -18.7584 40.9176 main 277 197 _____P________ -1 -18.7584 40.9176 99 22 139
1958351S19041 1959 115 SI MM NOT_NAMED 1958-12-18 06:00:00 TS -20.2857 42.2000 reunion main 182 68 O____O___OO___ jtwc_sh SH051959 -22.0000 43.4000 -1 -19.0000 41.3000 99 9.90000 -22.0000 43.4000 TC 25 -22.0000 43.4000 7 30 139
1958351S19041 1959 115 SI MM NOT_NAMED 1958-12-18 09:00:00 TS -21.0262 43.0386 main 68 0 P____P___PP___ SH051959 -22.1403 43.8649 -1 -19.3348 41.8112 99 -22.1403 43.8649 TC 25 -22.1809 43.8410 7 19 131
1958351S19041 1959 115 SI MM NOT_NAMED 1958-12-18 12:00:00 TS -21.5291 43.7164 main 0 0 O____P___OP___ jtwc_sh SH051959 -22.3000 44.3000 -1 -19.7504 42.4287 99 -22.3000 44.3000 TC 25 -22.3588 44.2662 7 15 128
1958351S19041 1959 115 SI MM NOT_NAMED 1958-12-18 15:00:00 TS -21.9367 44.2850 main 0 0 P____P___PP___ SH051959 -22.4924 44.6800 -1 -20.2295 43.1219 99 -22.4924 44.6800 TC 25 -22.5324 44.6582 7 12 126
1958351S19041 1959 115 SI MM NOT_NAMED 1958-12-18 18:00:00 TS -22.2138 44.7148 main 0 0 O____P___OO___ jtwc_sh SH051959 -22.7000 45.0000 -1 -20.7552 43.8593 99 -22.7000 45.0000 TC 25 -22.7000 45.0000 7 9 126
1958351S19041 1959 115 SI MM NOT_NAMED 1958-12-18 21:00:00 TS -22.4936 45.1085 main 0 0 P____P___PP___ SH051959 -22.8999 45.2726 -1 -21.3109 44.6088 99 -22.8999 45.2726 TC 25 -22.8639 45.2801 7 9 129
1958351S19041 1959 115 SI MM NOT_NAMED 1958-12-19 00:00:00 TS -22.7799 45.4622 main 0 0 O____P___OP___ jtwc_sh SH051959 -23.1000 45.5000 -1 -21.8804 45.3379 99 -23.1000 45.5000 TC 25 -23.0394 45.5110 7 8 132
1958351S19041 1959 115 SI MM NOT_NAMED 1958-12-19 03:00:00 TS -23.0621 45.7849 main 0 0 P____P___PP___ SH051959 -23.2774 45.7077 -1 -22.4483 46.0130 99 -23.2774 45.7077 TC 25 -23.2452 45.7114 7 8 137
1958351S19041 1959 115 SI MM NOT_NAMED 1958-12-19 06:00:00 TS -23.3750 46.0750 reunion main 0 0 O____O___OO___ jtwc_sh SH051959 -23.5000 45.9000 -1 -23.0000 46.6000 99 9.90000 -23.5000 45.9000 TC 25 -23.5000 45.9000 7 8 144
1958351S19041 1959 115 SI MM NOT_NAMED 1958-12-19 09:00:00 TS -23.7450 46.3302 main 0 0 P____P___PP___ SH051959 -23.8200 46.1000 -1 -23.5236 46.9895 99 -23.8200 46.1000 TC 25 -23.8166 46.1311 7 9 150
1958351S19041 1959 115 SI MM NOT_NAMED 1958-12-19 12:00:00 TS -24.1578 46.5632 main 0 0 O____P___OP___ jtwc_sh SH051959 -24.2000 46.3000 -1 -24.0486 47.3012 99 -24.2000 46.3000 TC 25 -24.1826 46.3518 7 9 154
1958351S19041 1959 115 SI MM NOT_NAMED 1958-12-19 15:00:00 TS -24.5833 46.7846 main 0 0 P____P___PP___ SH051959 -24.5925 46.5224 -1 -24.5659 47.5468 99 -24.5925 46.5224 TC 25 -24.5823 46.5467 7 9 157
1958351S19041 1959 115 SI MM NOT_NAMED 1958-12-19 18:00:00 TS -25.0165 46.9595 main 0 0 O____P___OO___ jtwc_sh SH051959 -25.0000 46.7000 -1 -25.0660 47.7381 99 -25.0000 46.7000 TC 25 -25.0000 46.7000 7 9 164
1958351S19041 1959 115 SI MM NOT_NAMED 1958-12-19 21:00:00 TS -25.4174 47.0498 main 30 30 P____P___PP___ SH051959 -25.3924 46.7728 -1 -25.5393 47.8870 99 -25.3924 46.7728 TC 25 -25.3455 46.7668 7 8 171
1958351S19041 1959 115 SI MM NOT_NAMED 1958-12-20 00:00:00 TS -25.8227 47.1003 main 73 73 O____P___OP___ jtwc_sh SH051959 -25.8000 46.8000 -1 -25.9760 48.0055 99 -25.8000 46.8000 TC 25 -25.7148 46.7958 7 8 174
1958351S19041 1959 115 SI MM NOT_NAMED 1958-12-20 03:00:00 TS -26.2245 47.1471 main 115 115 P____P___PP___ SH051959 -26.1900 46.8280 -1 -26.3662 48.1057 99 -26.1900 46.8280 TC 30 -26.1517 46.8267 7 9 173
1958351S19041 1959 115 SI MM NOT_NAMED 1958-12-20 06:00:00 TS -26.7000 47.2250 reunion main 172 172 O____O___OO___ jtwc_sh SH051959 -26.7000 46.9000 -1 -26.7000 48.2000 99 9.90000 -26.7000 46.9000 TC 35 -26.7000 46.9000 2 11 170
1958351S19041 1959 115 SI MM NOT_NAMED 1958-12-20 09:00:00 TS -27.3223 47.3750 main 242 242 P____P___PP___ SH051959 -27.4401 47.0699 -1 -26.9705 48.2986 99 -27.4401 47.0699 TC 35 -27.4385 47.0615 2 14 167
1958351S19041 1959 115 SI MM NOT_NAMED 1958-12-20 12:00:00 TS -28.0164 47.5691 main 322 322 O____P___OP___ jtwc_sh SH051959 -28.3000 47.3000 -1 -27.1828 48.4028 99 -28.3000 47.3000 TC 35 -28.2827 47.2738 2 14 166
1958351S19041 1959 115 SI MM NOT_NAMED 1958-12-20 15:00:00 TS -28.7089 47.7766 main 403 403 P____P___PP___ SH051959 -29.1649 47.5352 -1 -27.3453 48.5118 99 -29.1649 47.5352 TC 35 -29.1605 47.5243 2 14 164
1958351S19041 1959 115 SI MM NOT_NAMED 1958-12-20 18:00:00 TS -29.3665 48.0062 main 483 483 O____P___OO___ jtwc_sh SH051959 -30.0000 47.8000 -1 -27.4662 48.6248 99 -30.0000 47.8000 TC 35 -30.0000 47.8000 2 13 161
1958351S19041 1959 115 SI MM NOT_NAMED 1958-12-20 21:00:00 TS -29.9437 48.2538 main 545 545 P____P___PP___ SH051959 -30.7374 48.0928 -1 -27.5538 48.7409 99 -30.7374 48.0928 TC 35 -30.7462 48.0885 2 12 158
1958351S19041 1959 115 SI MM NOT_NAMED 1958-12-21 00:00:00 TS -30.4566 48.5113 main 614 614 O____P___OP___ jtwc_sh SH051959 -31.4000 48.4000 -1 -27.6165 48.8593 99 -31.4000 48.4000 TC 35 -31.4101 48.3859 2 11 156
1958351S19041 1959 115 SI MM NOT_NAMED 1958-12-21 03:00:00 TS -30.9267 48.7683 main 665 665 P____P___PP___ SH051959 -32.0126 48.7018 -1 -27.6624 48.9793 99 -32.0126 48.7018 TC 35 -32.0190 48.6902 2 10 154
1958351S19041 1959 115 SI MM NOT_NAMED 1958-12-21 06:00:00 TS -31.3750 49.0250 reunion main 724 O____O___OO___ jtwc_sh SH051959 -32.6000 49.0000 -1 -27.7000 49.1000 99 9.90000 -32.6000 49.0000 TC 35 -32.6000 49.0000 2 10 154

About IBTrACS Database

This database is a web-friendly format of International Best Track Archive for Climate Stewardship (IBTrACS), a global best track data archive curated by NOAA dating back to 1842.

Updated: 2021-10-19